Time;durP1;ratioP1;P1;durP2;ratioP2;P2;SDS_P1;SDS_P2;PMS_P1;PMS_P2;Temp;Humidity;BMP_temperature;BMP_pressure;BME280_temperature;BME280_humidity;BME280_pressure;Samples;Min_cycle;Max_cycle;Signal;HPM_P1;HPM_P2
2023/09/09 00:01:45;;;;;;;3.83;3.53;;;20.70;69.90;19.90;96647.00;;;;5015222;28;20767;-85
2023/09/09 00:04:12;;;;;;;4.10;3.80;;;20.70;69.90;19.90;96645.00;;;;5015962;28;20225;-85
2023/09/09 00:06:39;;;;;;;3.43;3.20;;;20.70;70.70;19.90;96651.00;;;;5014595;28;20217;-85
2023/09/09 00:09:07;;;;;;;4.67;4.00;;;20.70;70.00;19.90;96641.00;;;;5015203;28;20725;-85
2023/09/09 00:11:35;;;;;;;4.30;3.97;;;20.60;69.90;19.80;96641.00;;;;5015456;28;20201;-85
2023/09/09 00:14:03;;;;;;;4.00;3.70;;;20.60;70.00;19.80;96635.00;;;;5014419;28;20198;-85
2023/09/09 00:16:34;;;;;;;4.50;4.10;;;20.60;70.00;19.80;96638.00;;;;5014340;28;20653;-85
2023/09/09 00:19:02;;;;;;;4.07;3.77;;;20.60;70.00;19.70;96637.00;;;;5014500;28;20199;-84
2023/09/09 00:21:30;;;;;;;3.67;3.37;;;20.60;70.00;19.70;96636.00;;;;5015656;28;20206;-85
2023/09/09 00:23:57;;;;;;;3.83;3.53;;;20.50;69.90;19.70;96638.00;;;;5014237;28;20225;-85
2023/09/09 00:26:27;;;;;;;3.60;3.30;;;20.50;70.00;19.70;96634.00;;;;5015301;28;20222;-85
2023/09/09 00:28:56;;;;;;;3.93;3.40;;;20.50;70.00;19.60;96631.00;;;;5015120;28;20682;-85
2023/09/09 00:31:23;;;;;;;3.77;3.37;;;20.40;70.10;19.60;96634.00;;;;5016457;28;20619;-85
2023/09/09 00:33:50;;;;;;;3.93;3.53;;;20.40;70.10;19.60;96631.00;;;;5016273;28;20693;-85
2023/09/09 00:36:17;;;;;;;3.80;3.50;;;20.40;70.20;19.50;96632.00;;;;5015237;28;20228;-84
2023/09/09 00:38:45;;;;;;;3.87;3.57;;;20.30;70.20;19.50;96633.00;;;;5015425;28;20198;-85
2023/09/09 00:41:15;;;;;;;4.23;3.83;;;20.30;71.00;19.50;96636.00;;;;5007303;28;20575;-85
2023/09/09 00:43:43;;;;;;;3.73;3.47;;;20.30;70.20;19.50;96636.00;;;;5015129;28;20222;-85
2023/09/09 00:46:13;;;;;;;4.17;3.77;;;20.30;70.20;19.40;96637.00;;;;5015382;28;20230;-85
2023/09/09 00:48:40;;;;;;;4.53;3.77;;;20.20;70.40;19.40;96632.00;;;;5015364;28;20580;-84
2023/09/09 00:51:11;;;;;;;3.73;3.43;;;20.20;70.50;19.40;96640.00;;;;5015041;28;20727;-84
2023/09/09 00:53:40;;;;;;;4.00;3.70;;;20.20;70.50;19.40;96640.00;;;;5014796;28;20580;-84
2023/09/09 00:56:08;;;;;;;4.43;4.07;;;20.20;70.50;19.40;96627.00;;;;5013035;28;20238;-84
2023/09/09 00:58:35;;;;;;;3.67;3.37;;;20.20;70.50;19.40;96635.00;;;;5013614;28;20567;-85
2023/09/09 01:01:03;;;;;;;3.50;3.20;;;20.20;70.40;19.30;96634.00;;;;5013381;28;20228;-84
2023/09/09 01:03:32;;;;;;;3.93;3.63;;;20.20;70.50;19.30;96629.00;;;;5013637;28;20202;-84
2023/09/09 01:06:01;;;;;;;3.83;3.50;;;20.10;70.40;19.30;96632.00;;;;5014020;28;20236;-84
2023/09/09 01:08:29;;;;;;;3.80;3.40;;;20.10;70.30;19.30;96638.00;;;;5010532;28;20574;-84
2023/09/09 01:10:57;;;;;;;3.73;3.43;;;20.10;70.40;19.20;96638.00;;;;5014049;28;20338;-84
2023/09/09 01:13:25;;;;;;;4.20;3.80;;;20.00;70.40;19.20;96633.00;;;;5013169;28;20206;-84
2023/09/09 01:15:54;;;;;;;3.80;3.50;;;20.00;70.60;19.20;96640.00;;;;5013504;28;20231;-85
2023/09/09 01:18:22;;;;;;;3.60;3.30;;;20.00;70.80;19.20;96634.00;;;;5014906;28;20195;-84
2023/09/09 01:21:00;;;;;;;3.33;3.13;;;20.00;70.90;19.20;96631.00;;;;5013392;28;20190;-84
2023/09/09 01:23:29;;;;;;;3.83;3.60;;;20.00;70.90;19.20;96624.00;;;;5014597;28;20667;-84
2023/09/09 01:25:56;;;;;;;4.00;3.70;;;20.00;70.80;19.20;96626.00;;;;4996776;28;20251;-84
2023/09/09 01:28:23;;;;;;;3.80;3.50;;;20.00;70.70;19.20;96619.00;;;;5014403;28;20195;-84
2023/09/09 01:30:51;;;;;;;4.13;3.77;;;19.90;71.40;19.20;96620.00;;;;5013393;28;20281;-84
2023/09/09 01:33:19;;;;;;;5.20;4.00;;;20.00;70.80;19.10;96633.00;;;;5014238;28;20676;-85
2023/09/09 01:35:47;;;;;;;4.10;3.60;;;20.00;70.70;19.10;96629.00;;;;5014144;28;20220;-84
2023/09/09 01:38:14;;;;;;;4.10;3.80;;;19.90;70.70;19.10;96628.00;;;;5013819;28;20201;-84
2023/09/09 01:40:43;;;;;;;4.43;4.07;;;19.90;70.80;19.10;96624.00;;;;5014861;28;20202;-84
2023/09/09 01:43:10;;;;;;;4.50;4.10;;;19.90;71.00;19.10;96624.00;;;;4997847;28;20569;-84
2023/09/09 01:45:38;;;;;;;4.20;3.80;;;19.90;71.00;19.10;96619.00;;;;5014849;28;20309;-84
2023/09/09 01:48:06;;;;;;;4.07;3.67;;;19.90;70.90;19.10;96619.00;;;;5015014;28;20208;-84
2023/09/09 01:50:33;;;;;;;4.97;3.53;;;19.90;71.10;19.10;96617.00;;;;5014339;28;20202;-84
2023/09/09 01:53:02;;;;;;;3.87;3.53;;;19.90;71.00;19.00;96615.00;;;;5012618;28;20201;-84
2023/09/09 01:55:29;;;;;;;4.20;3.90;;;19.90;70.90;19.00;96616.00;;;;5013818;28;20218;-84
2023/09/09 01:57:57;;;;;;;3.70;3.50;;;19.80;70.80;19.00;96616.00;;;;5011458;28;20218;-84
2023/09/09 02:00:27;;;;;;;3.77;3.43;;;19.80;70.70;19.00;96615.00;;;;5012237;28;20285;-84
2023/09/09 02:02:55;;;;;;;4.00;3.70;;;19.80;70.50;19.00;96619.00;;;;5013029;28;20211;-84
2023/09/09 02:05:22;;;;;;;4.23;3.83;;;19.80;70.50;18.90;96620.00;;;;5012407;28;20218;-84
2023/09/09 02:07:49;;;;;;;4.17;3.83;;;19.80;70.50;18.90;96611.00;;;;5013656;28;20212;-84
2023/09/09 02:10:16;;;;;;;3.80;3.50;;;19.70;70.40;18.90;96617.00;;;;5012174;28;20224;-84
2023/09/09 02:12:44;;;;;;;3.93;3.20;;;19.70;70.40;18.80;96613.00;;;;5012272;28;20204;-84
2023/09/09 02:15:14;;;;;;;6.00;3.63;;;19.70;70.50;18.80;96601.00;;;;5013506;28;20222;-84
2023/09/09 02:17:41;;;;;;;4.43;3.63;;;19.70;70.70;18.80;96607.00;;;;5012133;28;20214;-84
2023/09/09 02:20:10;;;;;;;3.87;3.57;;;19.60;70.60;18.80;96599.00;;;;5013230;28;20697;-84
2023/09/09 02:22:37;;;;;;;4.27;3.83;;;19.60;70.80;18.80;96602.00;;;;5012252;28;20206;-84
2023/09/09 02:25:06;;;;;;;3.90;3.60;;;19.60;71.00;18.80;96600.00;;;;5013134;28;20664;-84
2023/09/09 02:27:34;;;;;;;4.20;3.80;;;19.60;71.20;18.80;96610.00;;;;5010245;28;20240;-83
2023/09/09 02:30:01;;;;;;;4.23;3.93;;;19.60;71.30;18.80;96611.00;;;;5010151;28;20198;-84
2023/09/09 02:32:30;;;;;;;3.90;3.60;;;19.60;71.40;18.80;96607.00;;;;5013398;28;20202;-84
2023/09/09 02:34:57;;;;;;;3.60;3.30;;;19.60;71.20;18.80;96612.00;;;;5012159;28;20194;-84
2023/09/09 02:37:27;;;;;;;3.60;3.33;;;19.60;71.10;18.80;96614.00;;;;5012788;28;20236;-84
2023/09/09 02:39:54;;;;;;;6.83;4.17;;;19.60;71.10;18.80;96611.00;;;;5012803;28;20667;-84
2023/09/09 02:42:24;;;;;;;4.60;4.20;;;19.60;71.00;18.80;96609.00;;;;5011819;28;20245;-84
2023/09/09 02:44:51;;;;;;;4.30;3.90;;;19.60;71.00;18.80;96620.00;;;;5012517;28;20575;-84
2023/09/09 02:47:19;;;;;;;3.83;3.53;;;19.60;71.10;18.70;96615.00;;;;5012621;28;20200;-83
2023/09/09 02:49:49;;;;;;;4.47;4.07;;;19.60;71.00;18.70;96611.00;;;;5010602;28;20198;-84
2023/09/09 02:52:17;;;;;;;4.50;4.10;;;19.60;71.10;18.70;96617.00;;;;5010453;28;20202;-84
2023/09/09 02:54:44;;;;;;;4.63;4.23;;;19.60;71.80;18.70;96610.00;;;;5012415;28;20236;-84
2023/09/09 02:57:11;;;;;;;4.27;3.87;;;19.50;71.10;18.70;96619.00;;;;5012299;28;20680;-84
2023/09/09 02:59:39;;;;;;;4.90;3.87;;;19.50;71.00;18.70;96612.00;;;;5012764;28;20197;-84
2023/09/09 03:02:07;;;;;;;5.40;4.10;;;19.50;71.00;18.60;96613.00;;;;5012594;28;20277;-84
2023/09/09 03:04:34;;;;;;;4.60;4.20;;;19.50;71.10;18.60;96609.00;;;;5012200;28;20660;-84
2023/09/09 03:07:02;;;;;;;4.47;3.67;;;19.50;71.10;18.60;96602.00;;;;5012226;28;20228;-83
2023/09/09 03:09:30;;;;;;;4.40;4.00;;;19.50;71.20;18.60;96602.00;;;;4994887;28;20194;-84
2023/09/09 03:11:57;;;;;;;3.90;3.53;;;19.50;71.30;18.60;96603.00;;;;5010909;28;20202;-83
2023/09/09 03:14:24;;;;;;;4.17;3.60;;;19.50;72.20;18.60;96594.00;;;;5011246;28;20198;-84
2023/09/09 03:16:52;;;;;;;4.83;4.27;;;19.40;71.50;18.60;96604.00;;;;5011815;28;20234;-83
2023/09/09 03:19:19;;;;;;;4.63;4.23;;;19.40;71.70;18.60;96601.00;;;;5012394;28;20190;-83
2023/09/09 03:21:46;;;;;;;4.10;3.80;;;19.40;71.70;18.60;96604.00;;;;5012419;28;20284;-83
2023/09/09 03:24:15;;;;;;;4.50;4.10;;;19.40;71.40;18.60;96607.00;;;;5007645;28;20202;-84
2023/09/09 03:26:42;;;;;;;5.27;3.87;;;19.40;71.30;18.60;96610.00;;;;5012233;28;20222;-83
2023/09/09 03:29:10;;;;;;;5.20;4.07;;;19.40;71.30;18.60;96610.00;;;;5011271;28;20194;-84
2023/09/09 03:31:37;;;;;;;4.40;3.73;;;19.40;71.30;18.60;96614.00;;;;5011622;28;20198;-84
2023/09/09 03:34:04;;;;;;;3.90;3.60;;;19.40;71.50;18.50;96610.00;;;;5012562;28;20659;-84
2023/09/09 03:36:32;;;;;;;3.80;3.50;;;19.40;71.50;18.50;96612.00;;;;5012230;28;20230;-83
2023/09/09 03:39:03;;;;;;;4.20;3.90;;;19.40;71.50;18.50;96610.00;;;;5012576;28;20190;-84
2023/09/09 03:41:32;;;;;;;3.97;3.67;;;19.40;71.40;18.50;96608.00;;;;5012111;28;20205;-84
2023/09/09 03:43:59;;;;;;;3.70;3.40;;;19.40;71.40;18.50;96611.00;;;;4994871;28;20221;-83
2023/09/09 03:46:26;;;;;;;4.23;3.83;;;19.30;71.20;18.50;96614.00;;;;5011731;28;20602;-83
2023/09/09 03:48:53;;;;;;;4.03;3.73;;;19.30;71.20;18.50;96609.00;;;;5009870;28;20198;-84
2023/09/09 03:51:20;;;;;;;3.57;3.27;;;19.30;71.30;18.50;96618.00;;;;5011784;28;20296;-83
2023/09/09 03:53:48;;;;;;;4.43;4.03;;;19.30;71.30;18.40;96614.00;;;;5011487;28;20290;-84
2023/09/09 03:56:18;;;;;;;3.80;3.50;;;19.30;71.40;18.40;96617.00;;;;5004685;28;20214;-84
2023/09/09 03:58:47;;;;;;;5.53;3.80;;;19.30;71.30;18.40;96620.00;;;;5010753;28;20615;-83
2023/09/09 04:01:14;;;;;;;4.40;3.37;;;19.30;71.30;18.40;96627.00;;;;5003382;28;20194;-84
2023/09/09 04:03:41;;;;;;;4.40;4.10;;;19.30;71.30;18.30;96618.00;;;;5011016;28;20198;-84
2023/09/09 04:06:13;;;;;;;5.30;4.07;;;19.20;71.10;18.30;96620.00;;;;5011795;28;20214;-84
2023/09/09 04:08:41;;;;;;;3.90;3.57;;;19.20;71.10;18.30;96617.00;;;;5011977;28;20289;-84
2023/09/09 04:11:08;;;;;;;3.80;3.30;;;19.20;71.00;18.30;96614.00;;;;5011843;28;20209;-83
2023/09/09 04:13:37;;;;;;;4.67;3.57;;;19.20;71.00;18.30;96618.00;;;;5011826;28;20198;-84
2023/09/09 04:16:06;;;;;;;3.87;3.33;;;19.20;71.10;18.20;96616.00;;;;5011516;28;20260;-84
2023/09/09 04:18:33;;;;;;;4.07;3.77;;;19.10;71.10;18.20;96611.00;;;;5010256;28;20603;-84
2023/09/09 04:21:00;;;;;;;4.47;4.03;;;19.10;71.10;18.20;96605.00;;;;5011475;28;20196;-84
2023/09/09 04:23:28;;;;;;;4.73;4.27;;;19.10;71.10;18.20;96618.00;;;;5011794;28;20291;-84
2023/09/09 04:25:55;;;;;;;4.67;4.30;;;19.00;71.10;18.10;96617.00;;;;4994144;28;20218;-84
2023/09/09 04:28:22;;;;;;;4.37;3.97;;;19.00;71.10;18.10;96620.00;;;;5011316;28;20202;-84
2023/09/09 04:30:49;;;;;;;4.47;4.10;;;19.00;71.00;18.10;96617.00;;;;5011002;28;20677;-84
2023/09/09 04:33:18;;;;;;;4.70;4.30;;;19.00;71.10;18.10;96620.00;;;;5011291;28;20207;-84
2023/09/09 04:35:46;;;;;;;5.00;4.10;;;18.90;71.10;18.10;96619.00;;;;5011408;28;20241;-84
2023/09/09 04:38:13;;;;;;;4.73;4.30;;;18.90;71.20;18.00;96622.00;;;;5003667;28;20236;-83
2023/09/09 04:40:41;;;;;;;4.93;4.53;;;18.90;71.30;18.00;96631.00;;;;5009080;28;20704;-84
2023/09/09 04:43:09;;;;;;;4.43;4.03;;;18.90;71.40;18.00;96629.00;;;;4993618;28;20198;-83
2023/09/09 04:45:36;;;;;;;4.90;4.40;;;18.80;71.30;18.00;96629.00;;;;5010685;28;20218;-84
2023/09/09 04:48:04;;;;;;;4.73;4.33;;;18.80;72.10;18.00;96627.00;;;;5012658;28;20667;-84
2023/09/09 04:50:33;;;;;;;5.60;4.40;;;18.80;71.40;17.90;96632.00;;;;5010638;28;20612;-83
2023/09/09 04:53:02;;;;;;;4.77;4.27;;;18.80;71.50;17.90;96628.00;;;;5017830;28;20302;-84
2023/09/09 04:55:29;;;;;;;5.33;3.87;;;18.70;71.40;17.90;96633.00;;;;5015626;28;20222;-84
2023/09/09 04:57:56;;;;;;;4.60;4.20;;;18.70;71.50;17.90;96629.00;;;;5014732;28;20825;-84
2023/09/09 05:00:24;;;;;;;4.33;3.93;;;18.70;71.50;17.90;96627.00;;;;5014931;28;20284;-84
2023/09/09 05:02:51;;;;;;;4.50;4.10;;;18.70;71.50;17.80;96626.00;;;;5015010;28;20277;-84
2023/09/09 05:05:18;;;;;;;4.40;4.00;;;18.70;71.60;17.80;96634.00;;;;5014662;28;20575;-84
2023/09/09 05:07:47;;;;;;;4.80;4.40;;;18.70;71.60;17.80;96633.00;;;;5014027;28;20198;-84
2023/09/09 05:10:15;;;;;;;5.20;4.20;;;18.70;71.60;17.80;96633.00;;;;5005678;28;20661;-84
2023/09/09 05:12:42;;;;;;;4.60;4.20;;;18.70;71.70;17.80;96635.00;;;;5013468;28;20285;-84
2023/09/09 05:15:11;;;;;;;4.50;4.13;;;18.70;71.90;17.80;96636.00;;;;5013870;28;20226;-84
2023/09/09 05:17:38;;;;;;;4.50;4.10;;;18.60;71.90;17.80;96630.00;;;;5014473;28;20229;-84
2023/09/09 05:20:07;;;;;;;4.50;3.97;;;18.60;72.00;17.80;96634.00;;;;5011823;28;20194;-84
2023/09/09 05:22:34;;;;;;;4.40;4.00;;;18.60;72.20;17.80;96635.00;;;;5014476;28;20289;-84
2023/09/09 05:25:03;;;;;;;4.60;3.90;;;18.60;72.50;17.80;96634.00;;;;5013111;28;20284;-84
2023/09/09 05:27:30;;;;;;;4.80;4.30;;;18.70;72.60;17.80;96638.00;;;;5013520;28;20201;-83
2023/09/09 05:29:57;;;;;;;4.63;4.20;;;18.60;72.50;17.80;96632.00;;;;5014136;28;20549;-84
2023/09/09 05:32:24;;;;;;;4.17;3.87;;;18.70;72.60;17.80;96643.00;;;;5014285;28;20285;-84
2023/09/09 05:34:51;;;;;;;4.73;4.33;;;18.70;72.70;17.80;96646.00;;;;5013567;28;20204;-84
2023/09/09 05:37:19;;;;;;;5.10;4.60;;;18.70;72.70;17.90;96637.00;;;;5013428;28;20226;-84
2023/09/09 05:39:46;;;;;;;4.50;4.10;;;18.70;72.80;17.90;96648.00;;;;5012663;28;20585;-83
2023/09/09 05:42:14;;;;;;;4.93;4.43;;;18.70;72.90;17.90;96644.00;;;;4996680;28;20195;-83
2023/09/09 05:44:42;;;;;;;5.07;4.57;;;18.70;73.00;17.90;96641.00;;;;5012106;28;20190;-84
2023/09/09 05:47:09;;;;;;;4.80;4.10;;;18.70;73.20;17.90;96644.00;;;;5013771;28;20914;-83
2023/09/09 05:49:37;;;;;;;5.63;5.07;;;18.70;73.20;17.90;96647.00;;;;5014057;28;20289;-83
2023/09/09 05:52:05;;;;;;;5.20;4.80;;;18.70;73.30;17.90;96645.00;;;;5013477;28;20208;-83
2023/09/09 05:54:32;;;;;;;5.10;4.47;;;18.70;73.40;18.00;96650.00;;;;5013606;28;20206;-83
2023/09/09 05:57:00;;;;;;;5.77;5.17;;;18.80;73.60;18.00;96649.00;;;;5013417;28;20229;-83
2023/09/09 05:59:28;;;;;;;5.60;5.10;;;18.80;73.80;18.00;96647.00;;;;5012925;28;20657;-83
2023/09/09 06:01:55;;;;;;;5.87;5.37;;;18.80;74.00;18.10;96651.00;;;;5012257;28;20213;-84
2023/09/09 06:04:23;;;;;;;5.83;5.23;;;18.80;74.10;18.10;96655.00;;;;5013629;28;20194;-83
2023/09/09 06:06:51;;;;;;;5.57;5.07;;;18.90;74.30;18.10;96650.00;;;;5013420;28;20218;-83
2023/09/09 06:09:18;;;;;;;5.80;5.20;;;18.90;74.40;18.20;96656.00;;;;5012456;28;20674;-82
2023/09/09 06:11:45;;;;;;;5.43;4.93;;;18.90;74.50;18.20;96653.00;;;;5013261;28;20198;-82
2023/09/09 06:14:12;;;;;;;6.47;5.87;;;19.00;74.70;18.30;96656.00;;;;5013523;28;20207;-83
2023/09/09 06:16:42;;;;;;;7.10;6.40;;;19.00;74.80;18.30;96650.00;;;;5015126;28;20217;-82
2023/09/09 06:19:09;;;;;;;8.03;6.70;;;19.00;75.00;18.40;96655.00;;;;5013619;28;20244;-83
2023/09/09 06:21:36;;;;;;;7.30;6.70;;;19.10;75.10;18.50;96650.00;;;;5013261;28;20203;-83
2023/09/09 06:24:04;;;;;;;8.10;7.30;;;19.20;75.30;18.50;96655.00;;;;5014106;28;20202;-82
2023/09/09 06:26:33;;;;;;;8.83;6.97;;;19.20;75.30;18.60;96657.00;;;;5012495;28;20280;-82
2023/09/09 06:29:01;;;;;;;8.73;7.07;;;19.30;75.60;18.70;96666.00;;;;5015458;28;20206;-83
2023/09/09 06:31:29;;;;;;;8.53;7.73;;;19.40;76.40;18.80;96655.00;;;;5017572;28;20205;-81
2023/09/09 06:33:57;;;;;;;9.40;8.50;;;19.40;75.80;18.90;96669.00;;;;5017285;28;20206;-82
2023/09/09 06:36:24;;;;;;;11.00;8.90;;;19.50;76.00;18.90;96669.00;;;;5015041;28;20218;-82
2023/09/09 06:38:52;;;;;;;9.33;8.43;;;19.60;76.10;19.00;96668.00;;;;5016788;28;20250;-82
2023/09/09 06:41:19;;;;;;;8.53;7.73;;;19.60;76.20;19.10;96673.00;;;;5016074;28;20215;-81
2023/09/09 06:43:47;;;;;;;9.53;8.63;;;19.70;76.30;19.20;96678.00;;;;5013830;28;20204;-81
2023/09/09 06:46:14;;;;;;;9.23;8.33;;;19.80;76.40;19.20;96684.00;;;;5007416;28;20634;-82
2023/09/09 06:48:42;;;;;;;8.60;7.80;;;19.90;76.70;19.30;96681.00;;;;5014322;28;20205;-82
2023/09/09 06:51:10;;;;;;;9.93;8.30;;;19.90;76.70;19.40;96681.00;;;;5014349;28;20667;-82
2023/09/09 06:53:37;;;;;;;9.57;8.67;;;20.00;76.90;19.50;96682.00;;;;5015642;28;20307;-82
2023/09/09 06:56:05;;;;;;;9.07;8.17;;;20.10;76.90;19.50;96687.00;;;;5018236;28;20217;-81
2023/09/09 06:58:32;;;;;;;9.43;7.80;;;20.20;77.00;19.60;96689.00;;;;5016924;28;20219;-81
2023/09/09 07:01:02;;;;;;;9.10;8.20;;;20.20;77.00;19.70;96696.00;;;;5020939;28;20276;-81
2023/09/09 07:03:29;;;;;;;9.27;8.10;;;20.30;77.00;19.80;96698.00;;;;5012746;28;20230;-81
2023/09/09 07:06:00;;;;;;;8.53;7.60;;;20.40;77.80;19.90;96697.00;;;;5019758;28;20645;-80
2023/09/09 07:08:29;;;;;;;9.07;8.17;;;20.50;77.30;20.00;96702.00;;;;5017610;28;20212;-82
2023/09/09 07:10:57;;;;;;;8.20;7.00;;;20.50;77.30;20.10;96704.00;;;;5018532;28;20194;-81
2023/09/09 07:13:25;;;;;;;8.87;7.97;;;20.60;77.30;20.10;96705.00;;;;5012058;28;20659;-82
2023/09/09 07:15:53;;;;;;;9.67;8.67;;;20.70;77.40;20.20;96704.00;;;;5018629;28;20722;-81
2023/09/09 07:18:21;;;;;;;8.83;7.87;;;20.80;77.50;20.30;96705.00;;;;5019711;28;20722;-81
2023/09/09 07:20:49;;;;;;;9.83;7.80;;;20.80;77.30;20.40;96700.00;;;;5014038;28;20225;-80
2023/09/09 07:23:18;;;;;;;8.20;7.50;;;20.90;77.40;20.50;96713.00;;;;5013315;28;20206;-80
2023/09/09 07:25:48;;;;;;;9.10;8.20;;;21.00;77.40;20.60;96706.00;;;;5017333;28;20293;-81
2023/09/09 07:28:15;;;;;;;9.50;8.50;;;21.10;77.30;20.70;96703.00;;;;5016643;28;20201;-81
2023/09/09 07:30:42;;;;;;;9.20;8.30;;;21.20;77.20;20.80;96710.00;;;;5016691;28;20291;-81
2023/09/09 07:33:09;;;;;;;8.70;7.83;;;21.30;77.30;20.90;96708.00;;;;5016721;28;20284;-81
2023/09/09 07:35:37;;;;;;;8.33;7.53;;;21.40;77.30;21.10;96719.00;;;;5015534;28;20244;-80
2023/09/09 07:38:06;;;;;;;9.43;8.50;;;21.50;77.30;21.20;96714.00;;;;5017512;28;20708;-80
2023/09/09 07:40:33;;;;;;;9.30;8.30;;;21.60;77.20;21.30;96703.00;;;;5016258;28;20243;-80
2023/09/09 07:43:02;;;;;;;9.40;8.40;;;21.80;77.20;21.40;96711.00;;;;5012215;28;20309;-80
2023/09/09 07:45:29;;;;;;;9.20;8.23;;;21.90;77.10;21.60;96707.00;;;;5015563;28;20216;-79
2023/09/09 07:47:57;;;;;;;9.67;8.67;;;22.00;77.00;21.70;96708.00;;;;4989913;28;20202;-80
2023/09/09 07:50:24;;;;;;;9.50;8.47;;;22.10;76.80;21.80;96718.00;;;;5014942;28;20214;-79
2023/09/09 07:52:51;;;;;;;8.73;7.57;;;22.20;76.70;21.90;96719.00;;;;5015691;28;20678;-80
2023/09/09 07:55:19;;;;;;;8.63;7.37;;;22.30;76.40;22.10;96717.00;;;;5017814;28;20710;-80
2023/09/09 07:57:46;;;;;;;7.00;6.20;;;22.40;76.10;22.20;96715.00;;;;5017060;28;20191;-80
2023/09/09 08:00:15;;;;;;;7.50;6.77;;;22.60;76.00;22.30;96717.00;;;;5011410;28;20689;-81
2023/09/09 08:02:43;;;;;;;7.13;6.43;;;22.70;75.70;22.40;96719.00;;;;5020480;28;20194;-80
2023/09/09 08:05:10;;;;;;;7.00;6.40;;;22.80;75.60;22.60;96726.00;;;;5006629;28;20229;-80
2023/09/09 08:07:37;;;;;;;7.30;6.67;;;22.90;75.50;22.70;96723.00;;;;5016313;28;20284;-80
2023/09/09 08:10:08;;;;;;;6.47;5.87;;;23.00;75.30;22.80;96724.00;;;;5016707;28;20202;-81
2023/09/09 08:12:35;;;;;;;7.77;7.07;;;23.20;75.20;22.90;96723.00;;;;5018764;28;20284;-80
2023/09/09 08:15:09;;;;;;;7.77;6.80;;;23.30;75.20;23.00;96733.00;;;;5018429;28;20201;-80
2023/09/09 08:17:39;;;;;;;7.00;6.40;;;23.40;75.00;23.10;96730.00;;;;5012904;28;21017;-80
2023/09/09 08:20:08;;;;;;;7.53;6.73;;;23.50;75.00;23.30;96730.00;;;;5017616;28;20775;-80
2023/09/09 08:22:36;;;;;;;7.23;6.63;;;23.60;74.80;23.40;96740.00;;;;5018186;28;20221;-80
2023/09/09 08:25:04;;;;;;;7.97;7.17;;;23.70;74.70;23.50;96744.00;;;;5019993;28;20261;-80
2023/09/09 08:27:32;;;;;;;7.10;6.23;;;23.90;74.30;23.60;96744.00;;;;5022836;28;20251;-80
2023/09/09 08:29:59;;;;;;;7.53;6.47;;;24.00;74.40;23.80;96742.00;;;;5024481;28;20288;-80
2023/09/09 08:32:26;;;;;;;7.50;6.83;;;24.10;74.40;23.90;96740.00;;;;5023646;28;20199;-80
2023/09/09 08:34:55;;;;;;;7.40;6.70;;;24.20;74.30;24.00;96736.00;;;;5021741;28;20201;-79
2023/09/09 08:37:23;;;;;;;7.33;6.63;;;24.30;74.00;24.10;96735.00;;;;5019048;28;20200;-80
2023/09/09 08:39:56;;;;;;;6.87;6.27;;;24.50;73.80;24.30;96739.00;;;;5020834;28;20218;-80
2023/09/09 08:42:41;;;;;;;6.80;6.10;;;24.60;73.90;24.40;96746.00;;;;5022079;28;20197;-80
2023/09/09 08:45:22;;;;;;;6.13;5.53;;;24.70;74.00;24.60;96744.00;;;;5014201;28;20601;-80
2023/09/09 08:47:56;;;;;;;7.47;6.70;;;24.90;74.20;24.70;96739.00;;;;5021845;28;20198;-80
2023/09/09 08:50:28;;;;;;;6.47;5.97;;;25.00;73.90;24.90;96741.00;;;;5023504;28;20196;-80
2023/09/09 08:52:59;;;;;;;6.60;6.00;;;25.20;74.40;25.10;96744.00;;;;5017997;28;20617;-81
2023/09/09 08:55:28;;;;;;;6.60;6.10;;;25.30;74.00;25.20;96747.00;;;;5013965;28;20249;-80
2023/09/09 08:57:55;;;;;;;6.00;5.50;;;25.50;73.90;25.40;96735.00;;;;5018995;28;20233;-81
2023/09/09 09:00:24;;;;;;;6.37;5.77;;;25.60;74.00;25.60;96746.00;;;;5022128;28;20229;-81
2023/09/09 09:02:51;;;;;;;6.30;5.70;;;25.80;73.80;25.70;96742.00;;;;5022053;28;20281;-81
2023/09/09 09:05:20;;;;;;;6.80;6.17;;;25.90;73.70;25.90;96739.00;;;;5020368;28;20251;-81
2023/09/09 09:07:48;;;;;;;6.37;5.87;;;26.10;73.40;26.00;96746.00;;;;5022049;28;20198;-81
2023/09/09 09:10:17;;;;;;;6.57;6.00;;;26.20;72.90;26.10;96749.00;;;;5010474;28;20201;-80
2023/09/09 09:12:46;;;;;;;5.80;5.30;;;26.30;72.70;26.30;96746.00;;;;5018422;28;20217;-80
2023/09/09 09:15:13;;;;;;;6.33;5.83;;;26.50;72.50;26.40;96753.00;;;;5009162;28;20218;-79
2023/09/09 09:17:42;;;;;;;6.37;5.77;;;26.60;72.50;26.50;96748.00;;;;5016480;28;20194;-81
2023/09/09 09:20:26;;;;;;;5.82;5.38;;;26.80;72.40;26.70;96750.00;;;;5013006;28;20218;-80
2023/09/09 09:23:00;;;;;;;5.70;5.30;;;26.90;72.30;26.80;96748.00;;;;5015771;28;20566;-80
2023/09/09 09:25:28;;;;;;;6.50;6.00;;;27.00;71.90;26.90;96743.00;;;;5016299;28;20217;-80
2023/09/09 09:27:59;;;;;;;6.07;5.57;;;27.20;71.90;27.10;96750.00;;;;5016022;28;20198;-80
2023/09/09 09:30:26;;;;;;;5.80;5.30;;;27.30;71.10;27.20;96747.00;;;;5018770;28;20198;-81
2023/09/09 09:32:54;;;;;;;6.13;5.63;;;27.40;71.30;27.30;96747.00;;;;5015763;28;20199;-82
2023/09/09 09:35:26;;;;;;;5.93;5.43;;;27.60;71.10;27.50;96745.00;;;;5015163;28;20301;-81
2023/09/09 09:37:58;;;;;;;6.03;5.53;;;27.70;70.90;27.60;96735.00;;;;5017091;28;20693;-81
2023/09/09 09:40:25;;;;;;;6.47;5.82;;;27.80;70.50;27.80;96740.00;;;;5015082;28;20214;-79
2023/09/09 09:42:53;;;;;;;6.50;5.47;;;27.90;70.80;27.90;96746.00;;;;5019367;28;20272;-80
2023/09/09 09:45:25;;;;;;;5.35;4.95;;;28.10;70.80;28.00;96735.00;;;;5013361;28;20224;-81
2023/09/09 09:47:53;;;;;;;5.68;5.28;;;28.20;70.30;28.10;96742.00;;;;5019940;28;20596;-81
2023/09/09 09:50:23;;;;;;;5.65;5.25;;;28.30;70.10;28.20;96745.00;;;;5017523;28;20292;-80
2023/09/09 09:52:59;;;;;;;8.13;7.32;;;28.40;70.10;28.40;96740.00;;;;5017866;28;20206;-81
2023/09/09 09:55:27;;;;;;;6.53;6.00;;;28.60;69.20;28.50;96746.00;;;;5017294;28;20679;-81
2023/09/09 09:57:57;;;;;;;5.28;4.90;;;28.70;68.90;28.60;96740.00;;;;5018394;28;20200;-81
2023/09/09 10:00:26;;;;;;;6.00;5.53;;;28.80;68.80;28.70;96745.00;;;;5022637;28;20257;-81
2023/09/09 10:02:55;;;;;;;6.97;6.10;;;28.90;69.00;28.80;96747.00;;;;5022255;28;20612;-81
2023/09/09 10:05:25;;;;;;;6.53;5.93;;;29.00;69.00;28.90;96748.00;;;;5022542;28;20420;-81
2023/09/09 10:07:55;;;;;;;6.53;6.03;;;29.10;68.90;29.00;96751.00;;;;5021209;28;20281;-81
2023/09/09 10:10:26;;;;;;;5.65;5.25;;;29.20;68.50;29.10;96752.00;;;;5018831;28;20202;-81
2023/09/09 10:13:02;;;;;;;6.00;5.50;;;29.30;68.20;29.20;96748.00;;;;5021052;28;20301;-81
2023/09/09 10:15:32;;;;;;;6.03;5.53;;;29.40;67.80;29.30;96739.00;;;;5022053;28;20313;-81
2023/09/09 10:18:01;;;;;;;5.38;4.97;;;29.50;68.10;29.40;96743.00;;;;5022807;28;20236;-81
2023/09/09 10:20:30;;;;;;;5.07;4.68;;;29.60;67.50;29.50;96741.00;;;;5017770;28;20699;-81
2023/09/09 10:22:59;;;;;;;5.25;4.85;;;29.70;67.60;29.60;96740.00;;;;5023350;28;20217;-81
2023/09/09 10:25:31;;;;;;;5.55;5.15;;;29.80;67.60;29.70;96743.00;;;;5022536;28;20217;-81
2023/09/09 10:28:01;;;;;;;5.57;5.18;;;29.80;67.50;29.80;96739.00;;;;5013877;28;20204;-83
2023/09/09 10:30:29;;;;;;;6.35;5.85;;;30.00;67.50;29.90;96739.00;;;;5013802;28;20252;-81
2023/09/09 10:33:02;;;;;;;6.03;5.50;;;30.00;67.20;30.00;96740.00;;;;5013168;28;20197;-81
2023/09/09 10:35:30;;;;;;;7.10;5.63;;;30.10;66.70;30.10;96741.00;;;;5013435;28;20218;-83
2023/09/09 10:37:58;;;;;;;5.47;4.97;;;30.20;66.10;30.20;96731.00;;;;5012413;28;20564;-82
2023/09/09 10:40:28;;;;;;;5.32;4.93;;;30.30;65.90;30.30;96724.00;;;;5014834;28;20218;-82
2023/09/09 10:42:56;;;;;;;5.95;5.47;;;30.40;65.70;30.40;96731.00;;;;5010975;28;20230;-81
2023/09/09 10:45:28;;;;;;;6.28;5.68;;;30.50;65.00;30.40;96734.00;;;;5017260;28;20216;-81
2023/09/09 10:47:58;;;;;;;5.53;5.03;;;30.60;64.30;30.50;96734.00;;;;5012305;28;20198;-82
2023/09/09 10:50:40;;;;;;;5.43;4.93;;;30.70;64.00;30.50;96732.00;;;;5013837;28;20202;-82
2023/09/09 10:53:21;;;;;;;4.88;4.57;;;30.70;63.40;30.50;96733.00;;;;5012570;28;20280;-82
2023/09/09 10:55:55;;;;;;;4.90;4.50;;;30.70;63.80;30.50;96731.00;;;;5013018;28;20768;-83
2023/09/09 10:58:34;;;;;;;5.78;5.28;;;30.70;64.20;30.50;96727.00;;;;5012619;28;20198;-82
2023/09/09 11:01:01;;;;;;;5.32;4.93;;;30.70;64.00;30.50;96732.00;;;;5012708;28;20207;-82